Time;durP1;ratioP1;P1;durP2;ratioP2;P2;SDS_P1;SDS_P2;PMS_P1;PMS_P2;Temp;Humidity;BMP_temperature;BMP_pressure;BME280_temperature;BME280_humidity;BME280_pressure;Samples;Min_cycle;Max_cycle;Signal;HPM_P1;HPM_P2
2022/01/22 00:08:34;;;;;;;1.77;1.15;;;11.40;59.70;;;;;;20681135;28;20157;-83
2022/01/22 00:18:35;;;;;;;0.47;0.20;;;11.40;59.70;;;;;;20678967;28;20141;-83
2022/01/22 00:28:37;;;;;;;1.35;0.25;;;11.40;59.80;;;;;;20661583;28;20112;-83
2022/01/22 00:38:39;;;;;;;0.20;0.10;;;11.40;60.10;;;;;;20677687;28;20081;-82
2022/01/22 00:48:40;;;;;;;0.10;0.10;;;11.40;60.20;;;;;;20643678;28;20121;-84
2022/01/22 00:58:41;;;;;;;0.60;0.20;;;11.40;60.30;;;;;;20676531;28;20069;-83
2022/01/22 01:08:44;;;;;;;0.50;0.20;;;11.30;60.40;;;;;;20658569;28;20030;-82
2022/01/22 01:39:30;;;;;;;2.05;0.40;;;11.30;60.60;;;;;;20645964;28;20063;-83
2022/01/22 01:49:31;;;;;;;0.20;0.10;;;11.30;60.50;;;;;;20671656;28;20053;-82
2022/01/22 01:59:35;;;;;;;0.20;0.10;;;11.30;60.50;;;;;;20638345;28;20035;-82
2022/01/22 02:09:38;;;;;;;1.70;0.25;;;11.30;60.50;;;;;;20638707;28;20476;-82
2022/01/22 02:30:00;;;;;;;0.30;0.10;;;11.30;60.50;;;;;;20642780;28;20034;-82
2022/01/22 02:40:28;;;;;;;0.10;0.10;;;11.30;60.40;;;;;;20669114;28;20531;-82
2022/01/22 02:50:29;;;;;;;0.10;0.10;;;11.30;60.60;;;;;;20636473;28;20038;-82
2022/01/22 03:00:33;;;;;;;0.00;0.00;;;11.30;60.60;;;;;;20620729;28;20037;-82
2022/01/22 03:10:34;;;;;;;0.17;0.10;;;11.30;60.60;;;;;;20636117;28;20348;-82
2022/01/22 03:21:05;;;;;;;0.00;0.00;;;11.30;60.50;;;;;;20655931;28;20042;-83
2022/01/22 03:31:06;;;;;;;0.32;0.17;;;11.40;60.50;;;;;;20691075;28;20400;-83
2022/01/22 03:41:08;;;;;;;0.40;0.17;;;11.30;60.50;;;;;;20745680;28;20053;-83
2022/01/22 03:51:09;;;;;;;0.28;0.10;;;11.40;60.60;;;;;;20729287;28;20304;-83
2022/01/22 04:01:44;;;;;;;0.50;0.10;;;11.30;60.60;;;;;;20729150;28;20061;-82
2022/01/22 04:11:40;;;;;;;0.00;0.00;;;11.30;60.60;;;;;;20734811;28;20038;-82
2022/01/22 04:32:03;;;;;;;0.08;0.08;;;11.30;60.70;;;;;;20759243;28;20046;-83
2022/01/22 04:42:04;;;;;;;0.05;0.00;;;11.20;60.70;;;;;;20758394;28;20030;-82
2022/01/22 05:02:27;;;;;;;0.43;0.22;;;11.20;60.90;;;;;;20729806;28;20196;-83
2022/01/22 05:12:36;;;;;;;0.32;0.20;;;11.20;60.90;;;;;;20726481;28;20033;-83
2022/01/22 05:32:57;;;;;;;0.30;0.22;;;12.90;57.20;;;;;;20754855;28;20591;-82
2022/01/22 05:43:23;;;;;;;0.10;0.10;;;13.80;54.80;;;;;;20707122;28;20480;-82
2022/01/22 06:03:24;;;;;;;0.20;0.20;;;15.10;51.00;;;;;;20719828;28;20046;-83
2022/01/22 06:13:43;;;;;;;0.98;0.22;;;15.30;50.20;;;;;;20719803;28;20446;-83
2022/01/22 06:23:45;;;;;;;1.05;0.20;;;15.30;49.90;;;;;;20706998;28;20038;-82
2022/01/22 06:33:47;;;;;;;1.50;0.70;;;15.10;50.00;;;;;;20734984;28;20042;-82
2022/01/22 06:43:48;;;;;;;2.88;0.50;;;14.30;51.20;;;;;;20749707;28;20049;-82
2022/01/22 06:53:58;;;;;;;0.32;0.30;;;13.60;52.90;;;;;;20751792;28;20040;-84
2022/01/22 07:04:00;;;;;;;1.13;0.50;;;12.90;54.30;;;;;;20734296;28;20069;-84
2022/01/22 07:14:11;;;;;;;1.73;0.70;;;12.40;55.70;;;;;;20720710;28;20030;-83
2022/01/22 07:24:26;;;;;;;0.82;0.45;;;12.10;56.90;;;;;;20683473;28;20034;-86
2022/01/22 07:34:31;;;;;;;1.60;0.60;;;11.80;57.70;;;;;;20653149;28;20035;-82
2022/01/22 07:44:42;;;;;;;0.93;0.43;;;11.70;58.20;;;;;;20712035;28;20060;-84
2022/01/22 07:54:43;;;;;;;1.65;0.57;;;11.60;58.70;;;;;;20727563;28;20117;-76
2022/01/22 08:04:44;;;;;;;0.70;0.32;;;11.60;59.00;;;;;;20709123;28;20608;-78
2022/01/22 08:15:06;;;;;;;1.00;0.52;;;11.60;59.30;;;;;;20732754;28;20057;-81
2022/01/22 08:25:09;;;;;;;0.75;0.47;;;11.60;59.40;;;;;;20724840;28;20077;-79
2022/01/22 08:45:30;;;;;;;1.05;0.50;;;11.60;59.70;;;;;;20646467;28;20050;-85
2022/01/22 08:55:34;;;;;;;3.58;0.50;;;11.50;59.80;;;;;;20660913;28;20057;-83
2022/01/22 09:05:36;;;;;;;6.95;0.50;;;11.50;60.00;;;;;;20653462;28;20057;-81
2022/01/22 09:16:00;;;;;;;1.02;0.60;;;11.50;60.10;;;;;;20649291;28;20041;-82
2022/01/22 09:26:02;;;;;;;2.45;0.80;;;11.60;60.30;;;;;;20654537;28;20035;-82
2022/01/22 09:36:04;;;;;;;1.35;0.77;;;11.60;60.60;;;;;;20656345;28;20046;-83
2022/01/22 09:46:30;;;;;;;3.13;1.08;;;11.50;60.60;;;;;;20642548;28;20074;-83
2022/01/22 09:56:45;;;;;;;2.47;0.90;;;11.50;60.80;;;;;;20625730;28;20034;-81
2022/01/22 10:07:02;;;;;;;0.70;0.50;;;11.50;61.00;;;;;;20654104;28;20038;-82
2022/01/22 10:17:12;;;;;;;2.28;0.93;;;11.40;61.20;;;;;;20649948;28;20065;-79
2022/01/22 10:27:33;;;;;;;1.60;0.60;;;11.40;61.40;;;;;;20615133;28;20031;-76
2022/01/22 10:37:34;;;;;;;4.50;0.77;;;11.40;61.50;;;;;;20633160;28;20038;-77
2022/01/22 10:47:37;;;;;;;1.80;0.70;;;11.40;61.60;;;;;;20618099;28;20053;-80
2022/01/22 10:57:37;;;;;;;0.70;0.40;;;11.30;61.70;;;;;;20649666;28;20050;-79
2022/01/22 11:07:38;;;;;;;0.77;0.43;;;11.30;61.90;;;;;;20648069;28;20128;-79
2022/01/22 11:17:40;;;;;;;1.10;0.60;;;11.50;61.70;;;;;;20633834;28;20042;-85
2022/01/22 11:27:41;;;;;;;1.17;0.52;;;12.30;60.10;;;;;;20649610;28;20046;-80
2022/01/22 11:37:47;;;;;;;1.75;0.38;;;13.10;58.10;;;;;;20649913;28;20392;-86
2022/01/22 11:48:21;;;;;;;1.48;0.73;;;13.90;56.20;;;;;;21028347;23;21417;-76
2022/01/22 11:58:21;;;;;;;1.25;0.55;;;14.50;54.20;;;;;;20568797;28;20717;-77
2022/01/22 12:08:24;;;;;;;1.45;0.55;;;14.90;53.40;;;;;;20560992;28;20605;-80
2022/01/22 12:18:31;;;;;;;2.03;1.17;;;15.00;52.90;;;;;;20578594;28;20031;-82
2022/01/22 12:28:36;;;;;;;4.47;1.08;;;14.90;52.70;;;;;;20561669;28;20138;-76
2022/01/22 12:38:46;;;;;;;1.55;0.95;;;14.50;53.20;;;;;;20594379;28;20069;-76
2022/01/22 12:48:48;;;;;;;1.58;0.68;;;13.80;54.70;;;;;;20578766;28;20042;-80
2022/01/22 12:58:50;;;;;;;3.88;1.10;;;13.20;56.20;;;;;;20584174;28;20069;-76
2022/01/22 13:08:57;;;;;;;1.35;0.90;;;12.70;57.50;;;;;;20589782;28;20489;-74
2022/01/22 13:19:16;;;;;;;2.35;0.70;;;12.30;58.50;;;;;;20589793;28;20030;-77
2022/01/22 13:29:17;;;;;;;3.63;0.75;;;12.10;59.50;;;;;;20589137;28;20038;-78
2022/01/22 13:39:37;;;;;;;1.20;0.55;;;11.90;60.30;;;;;;20588624;28;20093;-78
2022/01/22 13:49:40;;;;;;;2.83;0.80;;;11.80;60.90;;;;;;20574630;28;20053;-83
2022/01/22 13:59:46;;;;;;;2.17;0.80;;;11.80;61.30;;;;;;20586158;28;20533;-77
2022/01/22 14:10:06;;;;;;;1.67;0.40;;;11.70;61.50;;;;;;20593602;28;20054;-76
2022/01/22 14:20:10;;;;;;;2.97;1.00;;;11.80;61.70;;;;;;20568290;28;20058;-77
2022/01/22 14:30:11;;;;;;;1.65;0.75;;;11.80;61.70;;;;;;20587926;28;20070;-81
2022/01/22 14:50:17;;;;;;;1.87;0.90;;;11.70;62.00;;;;;;20551127;28;20449;-76
2022/01/22 15:00:20;;;;;;;4.07;1.08;;;11.70;62.20;;;;;;20583277;28;20050;-78
2022/01/22 15:10:21;;;;;;;2.67;0.80;;;11.70;62.40;;;;;;20583123;28;20038;-77
2022/01/22 15:20:24;;;;;;;2.33;1.17;;;11.60;62.60;;;;;;20599397;28;20090;-78
2022/01/22 15:30:31;;;;;;;3.70;1.10;;;11.60;62.80;;;;;;20645875;28;20041;-75
2022/01/22 15:40:33;;;;;;;6.15;1.20;;;11.60;63.00;;;;;;20661579;28;20034;-74
2022/01/22 15:50:34;;;;;;;7.20;1.25;;;12.00;62.50;;;;;;20643643;28;20050;-75
2022/01/22 16:00:37;;;;;;;1.25;0.85;;;12.90;60.80;;;;;;20659261;28;20683;-76
2022/01/22 16:10:39;;;;;;;4.35;1.73;;;13.50;59.00;;;;;;20642693;28;20042;-76
2022/01/22 16:20:41;;;;;;;3.47;1.40;;;14.20;57.30;;;;;;20658392;28;20034;-76
2022/01/22 16:30:42;;;;;;;3.63;1.58;;;14.50;56.20;;;;;;20595925;28;20086;-81
2022/01/22 16:40:43;;;;;;;7.30;2.08;;;14.50;55.80;;;;;;20611067;28;20039;-80
2022/01/22 17:01:05;;;;;;;3.28;1.58;;;14.00;56.30;;;;;;20593939;28;20281;-79
2022/01/22 17:11:12;;;;;;;2.72;1.15;;;13.50;57.30;;;;;;20607778;28;20054;-78
2022/01/22 17:21:13;;;;;;;2.97;1.38;;;13.10;58.30;;;;;;20617192;28;20101;-81
2022/01/22 17:31:21;;;;;;;3.80;1.63;;;12.70;59.20;;;;;;20601348;28;20042;-78
2022/01/22 17:41:23;;;;;;;2.03;1.23;;;12.50;59.90;;;;;;20585879;28;20065;-82
2022/01/22 17:51:24;;;;;;;2.75;1.45;;;12.30;60.40;;;;;;20567067;28;20073;-81
2022/01/22 18:01:25;;;;;;;6.88;1.25;;;12.20;60.80;;;;;;20627477;28;20034;-84
2022/01/22 18:11:27;;;;;;;2.72;1.55;;;12.20;61.00;;;;;;20660606;28;20051;-77
2022/01/22 18:21:28;;;;;;;3.22;1.40;;;12.20;61.20;;;;;;20634695;28;20043;-78
2022/01/22 18:31:29;;;;;;;3.15;1.27;;;12.20;61.40;;;;;;20562402;28;20069;-77
2022/01/22 18:41:30;;;;;;;2.22;0.95;;;12.10;61.50;;;;;;20574583;28;20457;-78
2022/01/22 18:51:30;;;;;;;2.47;0.90;;;12.10;61.60;;;;;;20599064;28;20042;-82
2022/01/22 19:01:38;;;;;;;2.13;0.77;;;12.10;61.60;;;;;;20693710;28;20034;-82
2022/01/22 19:11:38;;;;;;;2.63;1.13;;;12.10;61.70;;;;;;20677176;28;20117;-80
2022/01/22 19:22:11;;;;;;;1.60;1.00;;;12.10;61.70;;;;;;20662638;28;20121;-80
2022/01/22 19:32:03;;;;;;;2.00;1.30;;;12.10;61.70;;;;;;20518055;28;20054;-82
2022/01/22 19:42:06;;;;;;;3.50;1.23;;;12.10;61.70;;;;;;20496765;28;20118;-79
2022/01/22 19:52:07;;;;;;;1.80;1.30;;;12.10;61.80;;;;;;20535373;28;20054;-79
2022/01/22 20:02:07;;;;;;;2.00;0.80;;;12.10;62.50;;;;;;20602021;28;20038;-80
2022/01/22 20:12:09;;;;;;;2.35;1.10;;;12.10;61.90;;;;;;20559838;28;20046;-78
2022/01/22 20:22:09;;;;;;;1.48;0.80;;;12.00;61.80;;;;;;20565725;28;20065;-76
2022/01/22 20:32:10;;;;;;;2.38;1.10;;;12.00;61.90;;;;;;20664331;28;20034;-76
2022/01/22 20:42:11;;;;;;;2.55;1.33;;;12.00;61.90;;;;;;20655041;28;20131;-76
2022/01/22 20:52:11;;;;;;;1.50;0.85;;;12.00;62.00;;;;;;20633664;28;20054;-77
2022/01/22 21:02:14;;;;;;;2.63;1.05;;;12.00;62.00;;;;;;20606441;28;20093;-78
2022/01/22 21:12:15;;;;;;;2.33;0.82;;;12.00;62.00;;;;;;20571403;28;20397;-77
2022/01/22 21:22:17;;;;;;;1.52;0.90;;;12.00;62.00;;;;;;20584222;28;20035;-77
2022/01/22 21:32:18;;;;;;;0.98;0.50;;;12.00;62.00;;;;;;20569682;28;20061;-78
2022/01/22 21:42:21;;;;;;;1.23;0.60;;;11.90;62.00;;;;;;20576884;28;20126;-78
2022/01/22 21:52:22;;;;;;;2.22;1.10;;;11.90;62.10;;;;;;20567870;28;20528;-78
2022/01/22 22:02:24;;;;;;;0.55;0.55;;;11.90;62.20;;;;;;20575319;28;20057;-78
2022/01/22 22:12:25;;;;;;;2.08;0.90;;;11.90;62.20;;;;;;20566753;28;20035;-77
2022/01/22 22:22:25;;;;;;;1.20;0.60;;;11.90;62.30;;;;;;20582151;28;20086;-77
2022/01/22 22:32:28;;;;;;;1.88;0.73;;;11.90;62.30;;;;;;20572524;28;20066;-77
2022/01/22 22:42:37;;;;;;;1.17;0.50;;;11.90;62.20;;;;;;20549552;28;20047;-78
2022/01/22 22:52:39;;;;;;;0.77;0.60;;;11.90;62.30;;;;;;20566729;28;20053;-78
2022/01/22 23:02:40;;;;;;;1.35;0.60;;;11.80;62.20;;;;;;20563905;28;20097;-77
2022/01/22 23:12:44;;;;;;;1.00;0.87;;;11.90;62.30;;;;;;20575764;28;20035;-78
2022/01/22 23:23:00;;;;;;;1.23;0.60;;;11.90;62.30;;;;;;20595141;28;20270;-78
2022/01/22 23:33:16;;;;;;;1.80;0.80;;;11.80;62.30;;;;;;20596988;28;20389;-77
